Time;durP1;ratioP1;P1;durP2;ratioP2;P2;SDS_P1;SDS_P2;PMS_P1;PMS_P2;Temp;Humidity;BMP_temperature;BMP_pressure;BME280_temperature;BME280_humidity;BME280_pressure;Samples;Min_cycle;Max_cycle;Signal;HPM_P1;HPM_P2
2023/03/13 00:01:27;;;;;;;;;63.00;53.75;;;;;2.10;42.04;99768.00;5063021;28;8861;-78
2023/03/13 00:03:56;;;;;;;;;67.75;54.75;;;;;2.23;42.05;99772.56;5053056;28;8994;-80
2023/03/13 00:06:31;;;;;;;;;63.00;53.25;;;;;2.04;42.44;99766.19;5050932;28;8849;-81
2023/03/13 00:09:00;;;;;;;;;62.50;51.25;;;;;2.06;42.37;99761.03;5050077;28;8865;-79
2023/03/13 00:11:29;;;;;;;;;67.50;53.75;;;;;2.07;42.63;99773.13;5065472;28;8891;-78
2023/03/13 00:14:00;;;;;;;;;60.50;51.00;;;;;1.95;42.62;99779.84;5039905;28;9000;-78
2023/03/13 00:16:30;;;;;;;;;65.50;53.50;;;;;2.16;41.89;99784.53;5063240;28;8860;-80
2023/03/13 00:18:59;;;;;;;;;57.00;45.75;;;;;2.11;41.73;99791.38;5036176;28;8872;-82
2023/03/13 00:21:30;;;;;;;;;49.25;44.50;;;;;2.21;42.07;99793.28;5062563;28;8852;-79
2023/03/13 00:23:59;;;;;;;;;59.25;48.75;;;;;2.18;41.83;99790.66;5049385;28;8962;-78
2023/03/13 00:26:30;;;;;;;;;59.00;46.50;;;;;2.34;41.93;99789.16;5066579;28;8860;-77
2023/03/13 00:28:59;;;;;;;;;57.00;47.00;;;;;2.34;41.30;99788.31;5089044;28;8861;-79
2023/03/13 00:31:30;;;;;;;;;51.50;45.75;;;;;2.38;41.26;99798.75;5055095;28;8855;-80
2023/03/13 00:34:01;;;;;;;;;55.00;47.75;;;;;2.27;41.71;99799.41;5046247;28;8879;-78
2023/03/13 00:36:34;;;;;;;;;51.75;43.25;;;;;2.34;41.39;99819.44;5074386;28;8856;-77
2023/03/13 00:39:07;;;;;;;;;58.50;47.75;;;;;2.49;41.47;99811.03;5066221;28;8837;-77
2023/03/13 00:41:37;;;;;;;;;51.50;43.50;;;;;2.69;41.18;99800.94;5049435;28;8899;-77
2023/03/13 00:44:06;;;;;;;;;56.75;45.75;;;;;2.56;40.89;99808.56;5049121;28;8849;-77
2023/03/13 00:46:35;;;;;;;;;60.75;47.50;;;;;2.78;40.59;99809.75;5048992;28;8871;-78
2023/03/13 00:49:04;;;;;;;;;50.75;45.00;;;;;2.93;40.84;99824.69;5032068;28;8853;-79
2023/03/13 00:51:36;;;;;;;;;54.00;45.50;;;;;3.02;40.15;99816.16;5048537;28;8857;-80
2023/03/13 00:54:04;;;;;;;;;43.25;40.50;;;;;3.07;40.24;99811.91;5061944;28;8868;-77
2023/03/13 00:56:34;;;;;;;;;52.75;42.25;;;;;3.13;39.50;99813.72;5077283;28;9014;-81
2023/03/13 00:59:03;;;;;;;;;46.00;42.00;;;;;2.85;39.69;99800.34;5048597;28;8970;-78
2023/03/13 01:01:34;;;;;;;;;42.00;39.50;;;;;2.86;40.22;99802.06;5064784;28;8869;-78
2023/03/13 01:04:05;;;;;;;;;47.50;42.00;;;;;2.90;40.15;99806.47;5065120;28;8880;-79
2023/03/13 01:06:39;;;;;;;;;47.25;43.75;;;;;2.92;40.08;99811.66;5048500;28;8845;-80
2023/03/13 01:09:10;;;;;;;;;36.75;36.00;;;;;2.79;40.49;99805.44;5066547;28;9833;-78
2023/03/13 01:11:41;;;;;;;;;34.75;30.75;;;;;2.86;39.50;99807.25;5033780;28;8848;-79
2023/03/13 01:14:12;;;;;;;;;30.50;27.50;;;;;2.84;39.76;99802.91;5048039;28;8867;-81
2023/03/13 01:16:42;;;;;;;;;27.75;25.50;;;;;2.69;39.61;99798.34;5049815;28;8910;-77
2023/03/13 01:19:12;;;;;;;;;28.75;27.75;;;;;2.85;40.28;99802.94;5067198;28;8883;-78
2023/03/13 01:21:44;;;;;;;;;33.75;31.00;;;;;2.98;39.25;99807.44;5081005;28;9051;-78
2023/03/13 01:24:13;;;;;;;;;34.00;32.50;;;;;3.06;39.67;99814.47;5087515;28;8849;-83
2023/03/13 01:26:44;;;;;;;;;31.25;27.25;;;;;2.82;39.59;99834.03;5070093;28;8865;-80
2023/03/13 01:29:13;;;;;;;;;18.50;16.00;;;;;3.00;40.17;99830.84;5086284;28;8880;-79
2023/03/13 01:31:42;;;;;;;;;31.75;26.00;;;;;2.89;39.42;99828.09;4984421;28;8862;-78
2023/03/13 01:34:11;;;;;;;;;32.25;28.25;;;;;2.85;39.54;99836.69;5049754;28;8863;-79
2023/03/13 01:36:40;;;;;;;;;32.00;30.75;;;;;2.63;40.36;99843.25;5066364;28;8866;-77
2023/03/13 01:39:10;;;;;;;;;31.75;29.00;;;;;2.92;40.16;99842.81;5032990;28;8848;-79
2023/03/13 01:41:40;;;;;;;;;32.00;30.75;;;;;2.87;39.86;99847.09;5030667;28;8875;-77
2023/03/13 01:44:21;;;;;;;;;34.75;30.50;;;;;2.70;40.36;99852.03;5081121;28;8857;-78
2023/03/13 01:46:50;;;;;;;;;29.25;26.00;;;;;2.44;40.84;99855.06;5064173;28;8849;-77
2023/03/13 01:49:25;;;;;;;;;29.00;27.75;;;;;2.37;41.13;99863.56;5045070;28;8837;-77
2023/03/13 01:52:04;;;;;;;;;35.00;27.50;;;;;2.45;40.92;99855.91;5032489;28;8887;-79
2023/03/13 01:54:42;;;;;;;;;33.75;31.25;;;;;2.52;40.56;99862.97;5080656;28;8860;-79
2023/03/13 01:57:19;;;;;;;;;33.50;30.25;;;;;2.37;41.06;99872.25;5047289;28;9018;-78
2023/03/13 01:59:52;;;;;;;;;37.25;32.75;;;;;2.58;40.34;99876.03;5063765;28;8856;-80
2023/03/13 02:02:23;;;;;;;;;27.00;26.25;;;;;2.58;40.60;99865.66;5064130;28;8833;-80
2023/03/13 02:04:56;;;;;;;;;29.25;25.00;;;;;2.73;40.29;99873.72;5047364;28;8971;-77
2023/03/13 02:07:31;;;;;;;;;27.25;23.50;;;;;2.77;40.15;99874.63;5020704;28;8986;-81
2023/03/13 02:10:02;;;;;;;;;24.75;23.75;;;;;2.72;39.68;99866.75;5040882;28;8926;-78
2023/03/13 02:12:34;;;;;;;;;20.25;19.00;;;;;2.72;40.08;99876.28;5063305;28;8951;-78
2023/03/13 02:15:06;;;;;;;;;20.75;20.25;;;;;2.85;39.98;99870.44;5036296;28;8988;-77
2023/03/13 02:17:37;;;;;;;;;29.75;27.25;;;;;3.00;39.73;99878.47;5071698;28;8846;-79
2023/03/13 02:20:07;;;;;;;;;28.75;25.50;;;;;2.87;39.31;99876.53;5029663;28;8915;-79
2023/03/13 02:22:43;;;;;;;;;25.25;21.50;;;;;3.06;39.46;99861.22;5029669;28;8846;-80
2023/03/13 02:25:22;;;;;;;;;23.00;21.00;;;;;2.80;39.73;99869.47;5062679;28;8854;-78
2023/03/13 02:27:59;;;;;;;;;29.25;20.75;;;;;2.78;40.06;99861.66;5040285;28;8880;-79
2023/03/13 02:30:29;;;;;;;;;21.00;19.00;;;;;2.76;39.63;99863.38;5028986;28;9556;-78
2023/03/13 02:33:00;;;;;;;;;26.75;19.25;;;;;2.82;39.40;99852.19;5072060;28;8934;-79
2023/03/13 02:35:31;;;;;;;;;20.25;20.25;;;;;2.86;39.55;99846.19;5065002;28;8884;-76
2023/03/13 02:38:05;;;;;;;;;19.50;18.50;;;;;2.96;40.17;99842.03;5048710;28;8863;-78
2023/03/13 02:40:38;;;;;;;;;20.50;20.00;;;;;2.93;40.00;99852.38;5034829;28;9678;-79
2023/03/13 02:43:14;;;;;;;;;19.50;19.50;;;;;2.99;39.96;99845.53;5044880;28;9029;-79
2023/03/13 02:45:42;;;;;;;;;22.00;18.25;;;;;2.98;39.68;99842.94;5051532;28;8867;-78
2023/03/13 02:48:11;;;;;;;;;20.25;18.75;;;;;3.04;39.62;99844.75;5026350;28;8843;-78
2023/03/13 02:50:40;;;;;;;;;23.25;21.50;;;;;3.12;39.30;99843.13;5020721;28;8997;-79
2023/03/13 02:53:09;;;;;;;;;17.50;17.25;;;;;3.19;39.52;99850.16;5065912;28;8862;-79
2023/03/13 02:55:40;;;;;;;;;17.75;16.75;;;;;3.24;38.79;99847.59;5066083;28;8951;-79
2023/03/13 02:58:13;;;;;;;;;20.75;19.75;;;;;3.30;38.75;99845.09;5100293;28;9646;-77
2023/03/13 03:00:42;;;;;;;;;14.00;13.25;;;;;3.07;39.34;99848.28;5072485;28;8943;-78
2023/03/13 03:03:10;;;;;;;;;22.75;20.00;;;;;3.15;38.62;99856.16;5046545;28;8856;-79
2023/03/13 03:05:39;;;;;;;;;17.75;17.25;;;;;3.34;38.64;99858.16;5063060;28;8893;-79
2023/03/13 03:08:08;;;;;;;;;23.50;20.00;;;;;3.32;38.81;99865.06;5046126;28;8860;-78
2023/03/13 03:10:37;;;;;;;;;20.75;18.50;;;;;3.20;38.54;99862.28;5062821;28;8861;-79
2023/03/13 03:13:07;;;;;;;;;19.00;17.75;;;;;3.20;38.64;99857.09;5079906;28;8857;-80
2023/03/13 03:15:37;;;;;;;;;20.00;19.00;;;;;3.20;39.10;99863.19;5028381;28;8873;-79
2023/03/13 03:18:06;;;;;;;;;27.25;26.00;;;;;3.09;39.67;99864.75;5078524;28;8903;-79
2023/03/13 03:20:34;;;;;;;;;24.75;22.75;;;;;3.29;38.72;99870.19;5045815;28;8853;-78
2023/03/13 03:23:03;;;;;;;;;31.50;27.00;;;;;3.37;38.57;99872.91;5047319;28;8887;-80
2023/03/13 03:25:33;;;;;;;;;36.25;32.00;;;;;3.52;39.28;99872.28;5005139;28;8848;-80
2023/03/13 03:28:02;;;;;;;;;37.50;36.25;;;;;3.50;39.13;99880.03;4973437;28;8932;-76
2023/03/13 03:30:30;;;;;;;;;35.75;33.75;;;;;3.37;38.70;99878.09;5002566;28;8849;-79
2023/03/13 03:33:03;;;;;;;;;26.75;25.25;;;;;3.46;38.67;99872.19;4985816;28;8868;-80
2023/03/13 03:35:37;;;;;;;;;34.75;32.00;;;;;3.13;39.40;99871.72;4969481;28;8864;-78
2023/03/13 03:38:07;;;;;;;;;30.75;29.50;;;;;3.22;39.42;99867.50;4969518;28;8877;-78
2023/03/13 03:40:36;;;;;;;;;35.75;32.75;;;;;3.31;38.89;99863.31;4985415;28;9584;-78
2023/03/13 03:43:05;;;;;;;;;24.50;23.00;;;;;3.26;39.29;99858.91;4995176;28;8880;-78
2023/03/13 03:45:33;;;;;;;;;29.25;24.75;;;;;3.12;39.51;99856.97;4988737;28;8870;-78
2023/03/13 03:48:04;;;;;;;;;12.75;11.25;;;;;3.28;38.66;99852.88;5004865;28;8846;-79
2023/03/13 03:50:33;;;;;;;;;31.50;28.25;;;;;3.26;38.78;99846.81;5020925;28;8989;-78
2023/03/13 03:53:03;;;;;;;;;19.60;18.20;;;;;3.05;38.67;99841.28;5021130;28;8846;-77
2023/03/13 03:55:32;;;;;;;;;24.25;21.00;;;;;3.07;39.55;99840.47;5019740;28;9060;-82
2023/03/13 03:58:03;;;;;;;;;36.25;34.00;;;;;3.07;39.59;99849.97;5001168;28;8962;-79
2023/03/13 04:01:08;;;;;;;;;37.50;33.00;;;;;3.15;39.34;99849.25;5008436;28;8956;-77
2023/03/13 04:03:39;;;;;;;;;22.25;18.00;;;;;2.88;40.08;99836.75;5001360;28;9693;-77
2023/03/13 04:06:08;;;;;;;;;30.00;28.50;;;;;2.75;39.81;99837.38;5013483;28;8952;-79
2023/03/13 04:08:37;;;;;;;;;30.25;29.25;;;;;2.65;40.42;99833.75;5014560;28;8935;-77
2023/03/13 04:11:06;;;;;;;;;22.00;21.75;;;;;2.58;40.20;99837.09;5000628;28;8872;-78
2023/03/13 04:13:39;;;;;;;;;19.25;19.25;;;;;2.75;39.65;99843.47;5031005;28;8865;-77
2023/03/13 04:16:09;;;;;;;;;31.25;31.25;;;;;2.81;40.76;99850.47;5030592;28;8896;-76
2023/03/13 04:18:41;;;;;;;;;22.50;20.50;;;;;2.77;40.40;99841.75;5011094;28;8907;-79
2023/03/13 04:21:10;;;;;;;;;16.50;15.25;;;;;2.83;39.70;99840.13;4993252;28;8895;-79
2023/03/13 04:23:44;;;;;;;;;22.50;21.00;;;;;3.02;40.10;99833.47;5008517;28;9630;-78
2023/03/13 04:26:14;;;;;;;;;61.00;52.00;;;;;3.06;39.71;99832.66;4961742;28;8985;-79
2023/03/13 04:28:44;;;;;;;;;26.00;23.75;;;;;3.12;40.22;99841.38;4973703;28;8883;-77
2023/03/13 04:31:18;;;;;;;;;24.25;22.50;;;;;3.24;39.24;99840.72;4972757;28;8887;-77
2023/03/13 04:34:08;;;;;;;;;25.75;24.50;;;;;2.95;39.76;99848.06;4930616;28;8851;-79
2023/03/13 04:36:56;;;;;;;;;18.00;17.00;;;;;2.95;39.64;99848.94;4955640;28;8887;-78
2023/03/13 04:39:27;;;;;;;;;25.00;22.00;;;;;3.12;38.80;99856.13;4953680;28;8849;-78
2023/03/13 04:42:24;;;;;;;;;19.50;19.50;;;;;3.23;38.65;99862.34;4969132;28;8878;-78
2023/03/13 04:45:02;;;;;;;;;20.25;16.75;;;;;3.01;39.51;99853.34;4945389;28;8850;-77
2023/03/13 04:47:49;;;;;;;;;25.25;23.00;;;;;2.88;39.91;99852.31;4963617;28;8966;-78
2023/03/13 04:50:39;;;;;;;;;30.25;27.25;;;;;3.27;39.41;99850.25;4899063;29;9602;-77
2023/03/13 04:53:24;;;;;;;;;28.50;22.75;;;;;3.37;38.57;99857.31;4910095;29;8972;-81
2023/03/13 04:55:53;;;;;;;;;26.50;26.25;;;;;3.26;39.42;99870.19;4892813;29;8972;-79
2023/03/13 04:58:36;;;;;;;;;31.50;29.25;;;;;3.52;38.45;99864.47;4924623;29;8936;-79
2023/03/13 05:01:32;;;;;;;;;23.50;22.00;;;;;3.33;38.52;99868.53;4915892;29;8854;-77
2023/03/13 05:18:47;;;;;;;;;42.25;35.75;;;;;3.59;39.88;99880.16;4828674;29;8868;-79
2023/03/13 05:21:48;;;;;;;;;33.25;31.50;;;;;3.68;38.52;99894.16;4910753;29;8915;-77
2023/03/13 05:27:53;;;;;;;;;68.25;54.50;;;;;3.87;38.07;99871.84;4872480;29;8886;-78
2023/03/13 05:30:55;;;;;;;;;47.75;40.75;;;;;3.90;38.12;99879.66;4892045;29;8875;-79
2023/03/13 05:33:59;;;;;;;;;43.25;38.00;;;;;3.94;38.83;99879.75;4907780;29;9022;-77
2023/03/13 05:37:16;;;;;;;;;37.25;34.75;;;;;4.03;38.68;99886.75;4887537;29;8878;-77
2023/03/13 05:39:45;;;;;;;;;34.00;33.00;;;;;4.02;37.88;99881.53;4817625;29;8878;-77
2023/03/13 05:42:26;;;;;;;;;33.75;30.25;;;;;4.08;38.11;99879.03;4922469;29;8900;-77
2023/03/13 05:45:10;;;;;;;;;32.50;28.25;;;;;4.09;37.79;99870.34;4945429;29;8895;-77
2023/03/13 05:48:03;;;;;;;;;35.75;30.25;;;;;4.16;37.75;99866.94;4965692;28;8949;-80
2023/03/13 05:50:55;;;;;;;;;29.75;27.25;;;;;4.21;37.44;99860.06;4994262;28;8868;-78
2023/03/13 05:53:52;;;;;;;;;20.25;18.75;;;;;4.29;36.94;99863.63;4932966;28;8864;-80
2023/03/13 05:56:47;;;;;;;;;23.50;21.75;;;;;4.34;36.72;99861.06;4945953;28;8998;-79
2023/03/13 05:59:35;;;;;;;;;27.50;25.25;;;;;4.38;36.87;99864.59;4947912;28;8898;-77
2023/03/13 06:02:25;;;;;;;;;30.75;25.50;;;;;4.43;36.99;99853.31;4947595;28;8905;-79
2023/03/13 06:04:54;;;;;;;;;24.75;24.00;;;;;4.52;36.83;99855.16;4946779;28;9719;-78
2023/03/13 06:07:25;;;;;;;;;23.50;21.00;;;;;4.60;36.62;99852.59;4916057;28;8909;-77
2023/03/13 06:09:54;;;;;;;;;17.75;16.75;;;;;4.48;36.13;99856.84;4947049;28;8883;-79
2023/03/13 06:12:24;;;;;;;;;22.50;18.00;;;;;4.64;36.77;99850.06;4954618;28;9013;-78
2023/03/13 06:14:53;;;;;;;;;23.25;18.00;;;;;4.65;36.45;99853.53;4950893;28;8900;-78
2023/03/13 06:17:27;;;;;;;;;25.25;21.50;;;;;4.82;36.44;99854.53;4951146;28;8859;-80
2023/03/13 06:19:56;;;;;;;;;21.25;19.00;;;;;4.83;35.78;99860.59;4947599;28;8957;-78
2023/03/13 06:22:27;;;;;;;;;16.00;16.00;;;;;4.91;35.86;99856.34;4946607;28;10192;-80
2023/03/13 06:24:55;;;;;;;;;19.00;18.00;;;;;4.98;35.62;99852.91;4961764;28;8942;-78
2023/03/13 06:27:24;;;;;;;;;24.75;23.75;;;;;5.13;35.49;99860.84;4965396;28;8951;-78
2023/03/13 06:29:53;;;;;;;;;21.80;21.40;;;;;5.30;35.56;99871.41;4950349;28;8908;-77
2023/03/13 06:32:22;;;;;;;;;19.25;19.25;;;;;5.43;35.69;99861.00;4988311;28;8867;-77
2023/03/13 06:34:52;;;;;;;;;22.25;22.25;;;;;5.56;35.04;99861.94;5040183;28;8897;-77
2023/03/13 06:37:21;;;;;;;;;22.75;22.00;;;;;5.67;34.96;99865.47;5044689;28;8860;-77
2023/03/13 06:39:51;;;;;;;;;24.50;22.75;;;;;5.86;35.08;99858.59;5080158;28;8902;-79
2023/03/13 06:42:20;;;;;;;;;25.75;23.25;;;;;6.03;35.22;99859.50;5046564;28;8837;-77
2023/03/13 06:44:49;;;;;;;;;21.50;21.50;;;;;6.23;34.70;99863.94;5047257;28;8914;-79
2023/03/13 06:47:18;;;;;;;;;23.00;22.25;;;;;6.45;34.33;99867.41;5063256;28;8888;-78
2023/03/13 06:49:46;;;;;;;;;27.50;26.50;;;;;6.55;33.65;99871.78;5047874;28;8849;-80
2023/03/13 06:52:15;;;;;;;;;19.50;18.50;;;;;6.71;33.32;99870.91;5047854;28;8848;-78
2023/03/13 06:54:46;;;;;;;;;26.50;21.25;;;;;6.73;32.51;99876.13;5047036;28;8857;-77
2023/03/13 06:57:17;;;;;;;;;19.75;19.75;;;;;6.93;33.19;99883.13;5024468;28;8988;-77
2023/03/13 06:59:46;;;;;;;;;24.75;21.00;;;;;6.84;32.92;99870.94;5043878;28;8857;-81
2023/03/13 07:02:16;;;;;;;;;27.75;24.25;;;;;7.06;32.87;99859.63;5046175;28;8903;-79
2023/03/13 07:04:45;;;;;;;;;21.40;20.00;;;;;7.05;32.72;99857.84;5045568;28;8872;-79
2023/03/13 07:07:14;;;;;;;;;30.25;25.00;;;;;7.17;32.72;99854.34;5046153;28;8887;-80
2023/03/13 07:09:58;;;;;;;;;26.00;24.25;;;;;7.35;32.60;99850.81;5045698;28;8841;-80
2023/03/13 07:12:28;;;;;;;;;21.25;20.50;;;;;7.47;32.30;99848.16;5026773;28;8890;-82
2023/03/13 07:14:57;;;;;;;;;21.60;20.60;;;;;7.61;31.80;99842.91;5062107;28;9594;-80
2023/03/13 07:17:26;;;;;;;;;22.40;21.00;;;;;7.72;31.37;99845.47;5023784;28;9046;-81
2023/03/13 07:19:55;;;;;;;;;25.50;24.50;;;;;7.90;31.31;99844.50;5027891;28;8864;-78
2023/03/13 07:22:24;;;;;;;;;22.00;21.25;;;;;7.96;31.42;99839.22;5061376;28;8864;-81
2023/03/13 07:24:53;;;;;;;;;35.50;29.00;;;;;8.04;31.57;99832.22;5047591;28;8857;-79
2023/03/13 07:27:22;;;;;;;;;29.25;25.25;;;;;7.94;31.30;99832.25;5059089;28;9003;-78
2023/03/13 07:29:52;;;;;;;;;32.00;27.25;;;;;7.87;31.20;99828.81;5047376;28;8861;-83
2023/03/13 07:32:21;;;;;;;;;28.25;27.25;;;;;7.91;31.64;99817.47;5061331;28;9575;-81
2023/03/13 07:34:50;;;;;;;;;36.25;27.75;;;;;7.96;31.26;99823.50;5052307;28;9722;-81
2023/03/13 07:37:19;;;;;;;;;30.00;28.00;;;;;8.03;31.34;99826.97;5047715;28;8957;-80
2023/03/13 07:39:47;;;;;;;;;29.75;28.50;;;;;8.08;31.61;99814.75;5046996;28;8975;-81
2023/03/13 07:42:17;;;;;;;;;29.75;27.00;;;;;7.99;31.26;99822.66;5034261;28;8862;-80
2023/03/13 07:44:47;;;;;;;;;31.75;28.00;;;;;8.01;31.49;99831.34;5049368;28;8865;-81
2023/03/13 07:47:18;;;;;;;;;29.00;28.00;;;;;8.14;31.98;99832.16;5019026;28;8844;-82
2023/03/13 07:49:46;;;;;;;;;6.75;3.25;;;;;8.17;31.89;99825.13;5031824;28;8850;-81
2023/03/13 07:52:16;;;;;;;;;28.75;28.25;;;;;8.30;31.72;99830.28;5002948;28;8853;-80
2023/03/13 07:54:45;;;;;;;;;29.50;28.00;;;;;8.49;31.86;99824.06;4999781;28;8869;-80
2023/03/13 07:57:14;;;;;;;;;29.00;27.75;;;;;8.63;31.28;99829.22;4989277;28;8860;-80
2023/03/13 07:59:43;;;;;;;;;27.25;24.75;;;;;8.63;30.49;99823.97;5004993;28;8878;-80
2023/03/13 08:02:15;;;;;;;;;23.00;22.60;;;;;8.62;30.09;99817.84;4989143;28;8880;-82
2023/03/13 08:04:45;;;;;;;;;7.00;6.50;;;;;8.73;30.39;99820.38;4983069;28;8999;-80
2023/03/13 08:07:15;;;;;;;;;21.80;20.20;;;;;8.81;30.26;99820.31;4944320;28;8888;-80
2023/03/13 08:09:43;;;;;;;;;24.60;23.20;;;;;8.98;29.64;99809.66;5008611;28;10175;-79
2023/03/13 08:12:12;;;;;;;;;22.80;21.20;;;;;9.04;29.78;99817.44;5008286;28;8862;-81
2023/03/13 08:14:41;;;;;;;;;19.80;19.80;;;;;9.10;29.57;99824.38;5008382;28;8878;-81
2023/03/13 08:17:10;;;;;;;;;18.00;17.20;;;;;9.23;29.37;99821.63;4995571;28;9026;-82
2023/03/13 08:19:38;;;;;;;;;19.20;17.80;;;;;9.13;28.95;99817.34;5011612;28;8888;-80
2023/03/13 08:22:09;;;;;;;;;20.00;16.00;;;;;9.11;28.91;99815.66;5043779;28;8893;-79
2023/03/13 08:24:38;;;;;;;;;22.60;20.20;;;;;9.10;28.97;99814.78;5047733;28;8870;-80
2023/03/13 08:27:07;;;;;;;;;20.00;20.00;;;;;9.13;29.24;99804.25;5031431;28;8858;-82
2023/03/13 08:29:35;;;;;;;;;19.20;15.00;;;;;9.01;28.97;99805.25;5034618;28;8877;-80
2023/03/13 08:32:05;;;;;;;;;17.60;15.60;;;;;9.24;28.59;99801.50;5060587;28;9615;-82
2023/03/13 08:34:35;;;;;;;;;20.00;20.00;;;;;9.11;28.89;99786.78;5049367;28;8872;-80
2023/03/13 08:37:04;;;;;;;;;18.40;18.20;;;;;9.12;28.81;99786.78;5068889;28;8869;-78
2023/03/13 08:39:35;;;;;;;;;17.80;14.80;;;;;9.20;27.88;99786.69;5065936;28;8857;-81
2023/03/13 08:42:04;;;;;;;;;20.40;19.40;;;;;8.98;27.93;99788.66;5032607;28;8938;-81
2023/03/13 08:44:33;;;;;;;;;21.80;19.80;;;;;9.12;28.19;99785.88;5051572;28;8901;-80
2023/03/13 08:47:02;;;;;;;;;15.60;15.40;;;;;9.27;27.18;99784.84;5049833;28;8902;-78
2023/03/13 08:49:30;;;;;;;;;15.80;14.80;;;;;9.31;26.99;99776.94;5033818;28;8857;-81
2023/03/13 08:51:59;;;;;;;;;18.40;17.00;;;;;9.25;26.70;99771.75;5052868;28;8903;-80
2023/03/13 08:54:29;;;;;;;;;22.40;19.00;;;;;9.37;26.96;99770.75;5066420;28;8965;-82
2023/03/13 08:56:59;;;;;;;;;14.60;14.40;;;;;9.41;25.55;99760.19;5043791;28;8868;-80
2023/03/13 08:59:28;;;;;;;;;15.80;15.00;;;;;9.54;26.08;99768.78;5070342;28;8857;-80
2023/03/13 09:01:57;;;;;;;;;20.60;17.40;;;;;9.50;25.71;99779.31;5068766;28;9006;-80
2023/03/13 09:04:26;;;;;;;;;19.00;15.00;;;;;9.62;25.97;99768.72;5051531;28;8990;-80
2023/03/13 09:06:55;;;;;;;;;20.00;19.80;;;;;9.71;26.04;99767.72;5045039;28;8863;-79
2023/03/13 09:09:23;;;;;;;;;20.00;18.00;;;;;9.54;25.88;99771.41;5042267;28;8872;-80
2023/03/13 09:11:54;;;;;;;;;21.40;14.80;;;;;9.63;25.88;99773.09;5052240;28;8907;-81
2023/03/13 09:14:24;;;;;;;;;18.60;16.00;;;;;9.67;25.58;99784.38;5049864;28;8849;-78
2023/03/13 09:16:53;;;;;;;;;15.40;15.40;;;;;9.68;24.59;99778.25;5050651;28;8869;-78
2023/03/13 09:19:22;;;;;;;;;20.00;15.60;;;;;9.66;24.64;99774.78;5050247;28;8864;-80
2023/03/13 09:21:51;;;;;;;;;19.40;16.40;;;;;9.78;24.94;99778.13;5056176;28;8868;-80
2023/03/13 09:24:19;;;;;;;;;18.20;18.20;;;;;9.87;24.77;99773.63;5052349;28;8864;-80
2023/03/13 09:26:48;;;;;;;;;11.60;11.40;;;;;9.71;24.48;99775.59;5051007;28;8860;-77
2023/03/13 09:29:30;;;;;;;;;14.20;14.20;;;;;9.97;24.93;99781.34;5049036;28;8872;-83
2023/03/13 09:32:00;;;;;;;;;19.60;17.00;;;;;10.16;24.63;99781.03;5049410;28;8879;-81
2023/03/13 09:34:29;;;;;;;;;14.40;13.00;;;;;10.27;24.75;99779.13;5066622;28;8965;-82
2023/03/13 09:36:58;;;;;;;;;13.20;13.00;;;;;10.42;24.38;99767.50;5051239;28;8925;-82
2023/03/13 09:39:26;;;;;;;;;11.20;9.60;;;;;10.51;22.81;99762.09;5064237;28;8883;-81
2023/03/13 09:42:08;;;;;;;;;12.60;11.00;;;;;10.76;22.28;99764.31;5035252;28;8853;-81
2023/03/13 09:44:45;;;;;;;;;8.80;8.80;;;;;10.83;20.41;99767.72;5065919;28;8873;-82
2023/03/13 09:47:23;;;;;;;;;18.00;16.20;;;;;10.54;19.84;99762.03;5034031;28;8864;-79
2023/03/13 09:49:56;;;;;;;;;12.00;9.40;;;;;10.82;21.16;99764.19;5045476;28;8853;-81
2023/03/13 09:52:29;;;;;;;;;4.80;3.80;;;;;10.97;21.34;99763.03;5050778;28;8891;-80
2023/03/13 09:55:02;;;;;;;;;12.60;11.60;;;;;11.20;21.73;99759.09;5049693;28;8873;-81
2023/03/13 09:57:36;;;;;;;;;9.80;9.80;;;;;11.31;21.35;99763.25;5014034;28;8895;-80
2023/03/13 10:00:13;;;;;;;;;12.80;10.20;;;;;11.41;20.48;99755.16;5048555;28;8999;-81
2023/03/13 10:02:46;;;;;;;;;15.40;13.60;;;;;11.48;20.81;99757.63;5048489;28;8899;-80
2023/03/13 10:05:20;;;;;;;;;12.20;10.40;;;;;11.67;19.97;99754.59;5049473;28;8861;-81
2023/03/13 10:07:50;;;;;;;;;9.00;9.00;;;;;11.69;18.38;99752.78;5081259;28;8884;-79
2023/03/13 10:10:24;;;;;;;;;9.80;9.00;;;;;11.69;18.64;99751.03;5049387;28;8872;-80
2023/03/13 10:13:12;;;;;;;;;7.60;7.60;;;;;11.77;17.48;99740.34;5047338;28;8869;-82
2023/03/13 10:15:49;;;;;;;;;14.40;12.80;;;;;11.92;17.68;99736.50;5064324;28;8968;-80
2023/03/13 10:18:20;;;;;;;;;15.20;13.60;;;;;11.91;17.15;99732.13;5047569;28;9002;-80
2023/03/13 10:20:51;;;;;;;;;8.20;8.20;;;;;11.97;17.18;99723.22;5047472;28;8895;-81
2023/03/13 10:23:27;;;;;;;;;10.80;10.20;;;;;12.03;17.36;99729.22;5047284;28;8939;-80
2023/03/13 10:25:56;;;;;;;;;9.20;8.80;;;;;11.77;16.43;99716.63;5046913;28;8844;-81
2023/03/13 10:28:25;;;;;;;;;13.80;12.80;;;;;11.87;17.81;99712.03;5046905;28;8901;-80
2023/03/13 10:31:06;;;;;;;;;11.20;8.40;;;;;11.87;16.83;99706.78;5063611;28;8990;-81
2023/03/13 10:33:37;;;;;;;;;8.80;8.80;;;;;12.03;16.56;99696.72;5063473;28;8999;-82
2023/03/13 10:36:09;;;;;;;;;16.60;15.40;;;;;12.06;16.61;99697.50;5043398;28;8844;-81
2023/03/13 10:38:50;;;;;;;;;11.60;10.20;;;;;12.18;16.02;99687.56;5036957;28;8949;-81
2023/03/13 10:41:25;;;;;;;;;8.40;8.40;;;;;12.31;16.37;99681.06;5046490;28;8864;-83
2023/03/13 10:43:59;;;;;;;;;4.60;4.40;;;;;12.49;16.10;99672.69;5043566;28;8957;-81
2023/03/13 10:46:31;;;;;;;;;10.40;7.20;;;;;12.68;15.79;99667.78;5041263;28;8837;-82
2023/03/13 10:49:02;;;;;;;;;9.40;8.00;;;;;12.65;15.46;99665.22;5063723;28;8934;-81
2023/03/13 10:51:37;;;;;;;;;9.60;6.00;;;;;12.67;15.67;99658.13;5048054;28;9661;-80
2023/03/13 10:54:15;;;;;;;;;7.80;7.80;;;;;12.72;13.99;99656.22;5063598;28;8848;-80
2023/03/13 10:56:43;;;;;;;;;4.40;4.40;;;;;12.32;13.04;99659.09;5046429;28;8868;-82
2023/03/13 10:59:23;;;;;;;;;12.20;12.00;;;;;12.59;13.43;99648.72;5049654;28;8841;-82
2023/03/13 11:01:58;;;;;;;;;15.00;14.80;;;;;12.85;14.92;99651.50;5064416;28;8864;-80
2023/03/13 11:04:33;;;;;;;;;9.20;9.20;;;;;12.82;13.80;99648.06;5035793;28;8863;-81
2023/03/13 11:07:04;;;;;;;;;5.40;4.60;;;;;12.85;13.88;99643.59;5046269;28;8930;-80
2023/03/13 11:09:33;;;;;;;;;7.20;7.20;;;;;12.86;14.34;99639.16;5083197;28;8882;-79
2023/03/13 11:12:22;;;;;;;;;6.80;6.20;;;;;13.21;13.68;99632.00;5026306;28;8991;-80
2023/03/13 11:14:57;;;;;;;;;8.20;6.40;;;;;13.50;14.31;99636.38;5012204;28;8922;-81
2023/03/13 11:17:36;;;;;;;;;9.80;9.80;;;;;13.65;14.31;99625.31;5032984;28;9597;-81
2023/03/13 11:20:15;;;;;;;;;6.40;5.60;;;;;13.65;14.13;99616.53;5049894;28;8858;-80
2023/03/13 11:22:53;;;;;;;;;11.60;11.20;;;;;13.95;14.09;99613.81;5049228;28;9620;-80
2023/03/13 11:25:31;;;;;;;;;9.00;9.00;;;;;13.87;14.91;99620.22;5026078;28;9056;-78
2023/03/13 11:28:15;;;;;;;;;10.60;8.80;;;;;14.07;14.19;99610.75;5032515;28;8967;-81
2023/03/13 11:30:56;;;;;;;;;13.60;12.20;;;;;14.38;14.30;99614.97;5049317;28;8900;-80
2023/03/13 11:33:35;;;;;;;;;9.00;8.00;;;;;14.38;14.38;99615.84;5032625;28;8917;-80
2023/03/13 11:36:14;;;;;;;;;9.20;7.40;;;;;14.18;14.30;99605.94;5032669;28;8878;-80
2023/03/13 11:38:48;;;;;;;;;12.80;10.20;;;;;14.32;14.93;99601.94;5036302;28;8878;-80
2023/03/13 11:41:31;;;;;;;;;7.80;7.00;;;;;14.20;14.47;99585.59;5049364;28;8957;-79
2023/03/13 11:44:22;;;;;;;;;8.00;6.60;;;;;14.65;14.95;99584.84;5050529;28;8865;-81
2023/03/13 11:47:04;;;;;;;;;7.80;7.80;;;;;14.64;14.47;99580.50;5050328;28;8883;-80
2023/03/13 11:50:14;;;;;;;;;8.60;8.40;;;;;15.01;14.40;99571.19;5063425;28;8871;-80
2023/03/13 11:53:09;;;;;;;;;8.20;6.40;;;;;15.29;14.19;99564.81;4970152;28;8856;-81
2023/03/13 11:55:49;;;;;;;;;14.20;13.80;;;;;15.61;14.01;99566.16;4854663;29;9719;-81
2023/03/13 11:59:00;;;;;;;;;14.60;14.60;;;;;16.02;14.38;99565.34;4810075;29;9090;-80
2023/03/13 12:01:32;;;;;;;;;11.80;10.80;;;;;16.10;14.18;99554.41;4766306;30;8893;-79
2023/03/13 12:04:06;;;;;;;;;8.20;8.20;;;;;16.32;14.04;99549.00;4758655;30;8888;-82
2023/03/13 12:06:41;;;;;;;;;8.00;8.00;;;;;16.52;13.61;99548.16;4749779;30;8904;-80
2023/03/13 12:09:16;;;;;;;;;7.40;7.40;;;;;16.85;13.81;99547.50;4766010;30;8901;-79
2023/03/13 12:12:02;;;;;;;;;8.00;8.00;;;;;16.94;14.12;99542.63;4766184;30;8913;-81
2023/03/13 12:14:37;;;;;;;;;11.00;11.00;;;;;17.03;14.27;99540.47;4765833;30;8929;-80
2023/03/13 12:17:10;;;;;;;;;8.20;8.00;;;;;17.20;13.36;99525.44;4765782;30;8992;-81
2023/03/13 12:19:47;;;;;;;;;9.00;9.00;;;;;17.44;13.28;99532.28;4780752;30;8898;-79
2023/03/13 12:22:21;;;;;;;;;10.00;9.80;;;;;17.51;13.38;99536.38;4783733;29;8888;-78